Hlavní strana
METAR-TAF:

METAR-TAF

Letiště :

Vidalia Regional Airport

Vidalia, Georgie, Spojené státy americké

zeměpisná šířka: 32-11-33N, zeměpisná délka: 082-22-19W, výška: 84 m

Aktuální stav počasí

Zpráva byla vytvořena před 21 minutami, v 11:15 UTC
Jihojihozápadní vítr 3 kt
Teplota 25°C
Vlhkost vzduchu 65%
Tlak 1021 hPa
Viditelnost: 16.1 km
Jasno

METAR: KVDI 261115Z AUTO 21003KT 10SM CLR 25/18 A3015 RMK AO2

Čas: 07:36 (11:36 UTC)


TAF: chybějící

Stav a předpovědi počasí z více než 4 000 letišť (zprávy METAR a TAF).

Červené a žluté tečky na mapě představují dostupné meteorologické stanice.

Když kurzor umístíte na tečku, zobrazí se název stanice.

Pak kliknutím zobrazíte stav a předpověď počasí.

Chcete-li změnit mapu, kliknutím na zelené tlačítko se znaménkem +mapu přiblížíte, kliknutím na zelené tlačítko se znaménkem – mapu oddálíte a kliknutím na zelené šipky přejdete na sousední mapy.


METAR-TAF: